sensor_id;sensor_type;location;lat;lon;timestamp;P1;durP1;ratioP1;P2;durP2;ratioP2
69627;SDS011;56850;51.984;5.088;2023-04-15T00:00:59;7.70;;;4.40;;
69627;SDS011;56850;51.984;5.088;2023-04-15T00:03:26;11.93;;;4.10;;
69627;SDS011;56850;51.984;5.088;2023-04-15T00:05:56;11.05;;;4.10;;
69627;SDS011;56850;51.984;5.088;2023-04-15T00:08:23;5.13;;;3.63;;
69627;SDS011;56850;51.984;5.088;2023-04-15T00:10:50;12.05;;;4.07;;
69627;SDS011;56850;51.984;5.088;2023-04-15T00:13:18;8.40;;;4.10;;
69627;SDS011;56850;51.984;5.088;2023-04-15T00:15:45;9.53;;;4.27;;
69627;SDS011;56850;51.984;5.088;2023-04-15T00:18:13;6.70;;;3.90;;
69627;SDS011;56850;51.984;5.088;2023-04-15T00:20:40;8.68;;;4.05;;
69627;SDS011;56850;51.984;5.088;2023-04-15T00:23:07;8.73;;;4.15;;
69627;SDS011;56850;51.984;5.088;2023-04-15T00:25:34;6.15;;;3.90;;
69627;SDS011;56850;51.984;5.088;2023-04-15T00:28:01;6.60;;;4.47;;
69627;SDS011;56850;51.984;5.088;2023-04-15T00:30:29;7.50;;;4.55;;
69627;SDS011;56850;51.984;5.088;2023-04-15T00:32:57;9.23;;;3.85;;
69627;SDS011;56850;51.984;5.088;2023-04-15T00:35:24;8.48;;;4.18;;
69627;SDS011;56850;51.984;5.088;2023-04-15T00:37:51;9.77;;;3.90;;
69627;SDS011;56850;51.984;5.088;2023-04-15T00:40:18;6.03;;;4.07;;
69627;SDS011;56850;51.984;5.088;2023-04-15T00:42:48;7.32;;;4.18;;
69627;SDS011;56850;51.984;5.088;2023-04-15T00:45:16;9.00;;;4.57;;
69627;SDS011;56850;51.984;5.088;2023-04-15T00:47:44;7.72;;;4.30;;
69627;SDS011;56850;51.984;5.088;2023-04-15T00:50:11;8.07;;;4.20;;
69627;SDS011;56850;51.984;5.088;2023-04-15T00:52:39;10.17;;;4.47;;
69627;SDS011;56850;51.984;5.088;2023-04-15T00:55:06;9.23;;;4.03;;
69627;SDS011;56850;51.984;5.088;2023-04-15T00:57:34;8.48;;;3.50;;
69627;SDS011;56850;51.984;5.088;2023-04-15T01:00:02;11.73;;;4.13;;
69627;SDS011;56850;51.984;5.088;2023-04-15T01:02:37;8.05;;;4.07;;
69627;SDS011;56850;51.984;5.088;2023-04-15T01:05:05;10.67;;;4.77;;
69627;SDS011;56850;51.984;5.088;2023-04-15T01:07:33;7.40;;;4.18;;
69627;SDS011;56850;51.984;5.088;2023-04-15T01:10:02;8.80;;;4.13;;
69627;SDS011;56850;51.984;5.088;2023-04-15T01:12:29;9.50;;;4.65;;
69627;SDS011;56850;51.984;5.088;2023-04-15T01:14:58;7.68;;;4.70;;
69627;SDS011;56850;51.984;5.088;2023-04-15T01:17:25;9.27;;;4.50;;
69627;SDS011;56850;51.984;5.088;2023-04-15T01:19:54;7.78;;;4.63;;
69627;SDS011;56850;51.984;5.088;2023-04-15T01:22:23;7.85;;;5.03;;
69627;SDS011;56850;51.984;5.088;2023-04-15T01:25:04;7.93;;;4.55;;
69627;SDS011;56850;51.984;5.088;2023-04-15T01:27:35;10.70;;;5.50;;
69627;SDS011;56850;51.984;5.088;2023-04-15T01:30:07;9.53;;;5.07;;
69627;SDS011;56850;51.984;5.088;2023-04-15T01:32:36;9.18;;;4.93;;
69627;SDS011;56850;51.984;5.088;2023-04-15T01:35:03;7.90;;;4.78;;
69627;SDS011;56850;51.984;5.088;2023-04-15T01:37:30;8.10;;;4.78;;
69627;SDS011;56850;51.984;5.088;2023-04-15T01:39:58;10.55;;;5.07;;
69627;SDS011;56850;51.984;5.088;2023-04-15T01:42:25;10.87;;;5.00;;
69627;SDS011;56850;51.984;5.088;2023-04-15T01:44:53;9.02;;;4.78;;
69627;SDS011;56850;51.984;5.088;2023-04-15T01:47:20;9.27;;;5.07;;
69627;SDS011;56850;51.984;5.088;2023-04-15T01:49:47;10.00;;;5.00;;
69627;SDS011;56850;51.984;5.088;2023-04-15T01:52:14;8.30;;;4.90;;
69627;SDS011;56850;51.984;5.088;2023-04-15T01:54:41;7.13;;;4.67;;
69627;SDS011;56850;51.984;5.088;2023-04-15T01:57:10;8.05;;;5.22;;
69627;SDS011;56850;51.984;5.088;2023-04-15T01:59:38;7.85;;;4.63;;
69627;SDS011;56850;51.984;5.088;2023-04-15T02:02:05;9.40;;;5.20;;
69627;SDS011;56850;51.984;5.088;2023-04-15T02:04:33;5.40;;;4.63;;
69627;SDS011;56850;51.984;5.088;2023-04-15T02:07:00;9.73;;;5.63;;
69627;SDS011;56850;51.984;5.088;2023-04-15T02:09:27;11.48;;;6.00;;
69627;SDS011;56850;51.984;5.088;2023-04-15T02:11:57;10.95;;;5.53;;
69627;SDS011;56850;51.984;5.088;2023-04-15T02:14:24;8.95;;;5.47;;
69627;SDS011;56850;51.984;5.088;2023-04-15T02:16:56;5.95;;;4.97;;
69627;SDS011;56850;51.984;5.088;2023-04-15T02:19:23;9.13;;;5.30;;
69627;SDS011;56850;51.984;5.088;2023-04-15T02:21:50;9.95;;;5.28;;
69627;SDS011;56850;51.984;5.088;2023-04-15T02:24:17;11.95;;;6.05;;
69627;SDS011;56850;51.984;5.088;2023-04-15T02:26:44;8.60;;;5.72;;
69627;SDS011;56850;51.984;5.088;2023-04-15T02:29:12;9.43;;;6.22;;
69627;SDS011;56850;51.984;5.088;2023-04-15T02:31:39;9.73;;;5.83;;
69627;SDS011;56850;51.984;5.088;2023-04-15T02:34:07;8.50;;;6.00;;
69627;SDS011;56850;51.984;5.088;2023-04-15T02:36:34;8.40;;;5.63;;
69627;SDS011;56850;51.984;5.088;2023-04-15T02:39:03;8.60;;;5.25;;
69627;SDS011;56850;51.984;5.088;2023-04-15T02:41:30;10.68;;;5.72;;
69627;SDS011;56850;51.984;5.088;2023-04-15T02:43:57;9.73;;;5.97;;
69627;SDS011;56850;51.984;5.088;2023-04-15T02:46:24;8.13;;;5.57;;
69627;SDS011;56850;51.984;5.088;2023-04-15T02:48:52;7.00;;;5.32;;
69627;SDS011;56850;51.984;5.088;2023-04-15T02:51:21;9.75;;;5.82;;
69627;SDS011;56850;51.984;5.088;2023-04-15T02:53:48;7.75;;;5.30;;
69627;SDS011;56850;51.984;5.088;2023-04-15T02:56:16;9.70;;;5.60;;
69627;SDS011;56850;51.984;5.088;2023-04-15T02:58:45;10.13;;;6.00;;
69627;SDS011;56850;51.984;5.088;2023-04-15T03:01:12;9.80;;;5.93;;
69627;SDS011;56850;51.984;5.088;2023-04-15T03:03:40;9.75;;;5.68;;
69627;SDS011;56850;51.984;5.088;2023-04-15T03:06:07;8.40;;;5.70;;
69627;SDS011;56850;51.984;5.088;2023-04-15T03:08:35;9.33;;;5.73;;
69627;SDS011;56850;51.984;5.088;2023-04-15T03:11:02;7.35;;;5.25;;
69627;SDS011;56850;51.984;5.088;2023-04-15T03:13:31;8.20;;;5.40;;
69627;SDS011;56850;51.984;5.088;2023-04-15T03:16:04;11.23;;;6.53;;
69627;SDS011;56850;51.984;5.088;2023-04-15T03:18:32;10.18;;;6.13;;
69627;SDS011;56850;51.984;5.088;2023-04-15T03:21:01;8.80;;;5.93;;
69627;SDS011;56850;51.984;5.088;2023-04-15T03:23:31;9.23;;;5.47;;
69627;SDS011;56850;51.984;5.088;2023-04-15T03:26:02;9.80;;;6.20;;
69627;SDS011;56850;51.984;5.088;2023-04-15T03:28:31;9.75;;;6.00;;
69627;SDS011;56850;51.984;5.088;2023-04-15T03:30:59;9.45;;;6.10;;
69627;SDS011;56850;51.984;5.088;2023-04-15T03:33:26;9.13;;;5.40;;
69627;SDS011;56850;51.984;5.088;2023-04-15T03:35:53;8.63;;;6.20;;
69627;SDS011;56850;51.984;5.088;2023-04-15T03:38:20;11.00;;;6.30;;
69627;SDS011;56850;51.984;5.088;2023-04-15T03:40:47;11.57;;;5.90;;
69627;SDS011;56850;51.984;5.088;2023-04-15T03:43:14;10.48;;;6.13;;
69627;SDS011;56850;51.984;5.088;2023-04-15T03:45:41;6.87;;;5.33;;
69627;SDS011;56850;51.984;5.088;2023-04-15T03:48:08;8.98;;;5.38;;
69627;SDS011;56850;51.984;5.088;2023-04-15T03:50:42;8.45;;;5.65;;
69627;SDS011;56850;51.984;5.088;2023-04-15T03:53:09;10.55;;;5.53;;
69627;SDS011;56850;51.984;5.088;2023-04-15T03:55:36;8.48;;;6.00;;
69627;SDS011;56850;51.984;5.088;2023-04-15T03:58:03;9.60;;;6.20;;
69627;SDS011;56850;51.984;5.088;2023-04-15T04:00:30;10.73;;;6.45;;
69627;SDS011;56850;51.984;5.088;2023-04-15T04:02:57;8.63;;;5.90;;
69627;SDS011;56850;51.984;5.088;2023-04-15T04:05:25;11.70;;;6.18;;
69627;SDS011;56850;51.984;5.088;2023-04-15T04:07:52;9.63;;;5.97;;
69627;SDS011;56850;51.984;5.088;2023-04-15T04:10:19;9.77;;;6.20;;
69627;SDS011;56850;51.984;5.088;2023-04-15T04:12:46;6.00;;;5.40;;
69627;SDS011;56850;51.984;5.088;2023-04-15T04:15:13;8.45;;;6.38;;
69627;SDS011;56850;51.984;5.088;2023-04-15T04:17:40;10.60;;;6.63;;
69627;SDS011;56850;51.984;5.088;2023-04-15T04:20:07;11.50;;;6.38;;
69627;SDS011;56850;51.984;5.088;2023-04-15T04:22:38;12.03;;;6.20;;
69627;SDS011;56850;51.984;5.088;2023-04-15T04:25:06;9.95;;;6.22;;
69627;SDS011;56850;51.984;5.088;2023-04-15T04:27:33;10.93;;;6.35;;
69627;SDS011;56850;51.984;5.088;2023-04-15T04:30:01;10.88;;;6.60;;
69627;SDS011;56850;51.984;5.088;2023-04-15T04:32:28;7.72;;;6.22;;
69627;SDS011;56850;51.984;5.088;2023-04-15T04:34:56;9.10;;;6.30;;
69627;SDS011;56850;51.984;5.088;2023-04-15T04:37:23;10.23;;;6.50;;
69627;SDS011;56850;51.984;5.088;2023-04-15T04:39:50;7.55;;;6.13;;
69627;SDS011;56850;51.984;5.088;2023-04-15T04:42:17;10.43;;;6.85;;
69627;SDS011;56850;51.984;5.088;2023-04-15T04:44:44;9.55;;;6.10;;
69627;SDS011;56850;51.984;5.088;2023-04-15T04:47:11;6.80;;;5.77;;
69627;SDS011;56850;51.984;5.088;2023-04-15T04:49:39;9.88;;;6.70;;
69627;SDS011;56850;51.984;5.088;2023-04-15T04:52:06;13.20;;;7.18;;
69627;SDS011;56850;51.984;5.088;2023-04-15T04:54:33;9.50;;;6.20;;
69627;SDS011;56850;51.984;5.088;2023-04-15T04:57:00;11.02;;;6.70;;
69627;SDS011;56850;51.984;5.088;2023-04-15T04:59:27;12.33;;;7.07;;
69627;SDS011;56850;51.984;5.088;2023-04-15T05:01:54;9.32;;;6.10;;
69627;SDS011;56850;51.984;5.088;2023-04-15T05:04:21;9.48;;;6.20;;
69627;SDS011;56850;51.984;5.088;2023-04-15T05:06:48;9.18;;;6.22;;
69627;SDS011;56850;51.984;5.088;2023-04-15T05:09:15;10.70;;;7.00;;
69627;SDS011;56850;51.984;5.088;2023-04-15T05:11:42;8.07;;;6.90;;
69627;SDS011;56850;51.984;5.088;2023-04-15T05:14:09;9.75;;;6.72;;
69627;SDS011;56850;51.984;5.088;2023-04-15T05:16:36;9.55;;;6.65;;
69627;SDS011;56850;51.984;5.088;2023-04-15T05:19:03;11.23;;;7.38;;
69627;SDS011;56850;51.984;5.088;2023-04-15T05:21:30;14.85;;;7.07;;
69627;SDS011;56850;51.984;5.088;2023-04-15T05:23:58;12.47;;;7.37;;
69627;SDS011;56850;51.984;5.088;2023-04-15T05:26:24;13.38;;;7.03;;
69627;SDS011;56850;51.984;5.088;2023-04-15T05:28:52;10.30;;;7.18;;
69627;SDS011;56850;51.984;5.088;2023-04-15T05:31:20;9.80;;;6.57;;
69627;SDS011;56850;51.984;5.088;2023-04-15T05:33:47;7.63;;;6.55;;
69627;SDS011;56850;51.984;5.088;2023-04-15T05:36:14;10.07;;;6.97;;
69627;SDS011;56850;51.984;5.088;2023-04-15T05:38:41;10.88;;;7.40;;
69627;SDS011;56850;51.984;5.088;2023-04-15T05:41:08;8.88;;;6.40;;
69627;SDS011;56850;51.984;5.088;2023-04-15T05:43:35;10.48;;;7.13;;
69627;SDS011;56850;51.984;5.088;2023-04-15T05:46:01;12.40;;;7.00;;
69627;SDS011;56850;51.984;5.088;2023-04-15T05:48:28;11.87;;;6.97;;
69627;SDS011;56850;51.984;5.088;2023-04-15T05:50:55;11.65;;;7.15;;
69627;SDS011;56850;51.984;5.088;2023-04-15T05:53:22;10.05;;;7.15;;
69627;SDS011;56850;51.984;5.088;2023-04-15T05:55:49;10.95;;;7.00;;
69627;SDS011;56850;51.984;5.088;2023-04-15T05:58:16;10.02;;;7.28;;
69627;SDS011;56850;51.984;5.088;2023-04-15T06:00:43;9.80;;;7.17;;
69627;SDS011;56850;51.984;5.088;2023-04-15T06:03:11;9.48;;;6.45;;
69627;SDS011;56850;51.984;5.088;2023-04-15T06:05:38;10.38;;;7.00;;
69627;SDS011;56850;51.984;5.088;2023-04-15T06:08:06;10.80;;;7.07;;
69627;SDS011;56850;51.984;5.088;2023-04-15T06:10:34;13.05;;;7.47;;
69627;SDS011;56850;51.984;5.088;2023-04-15T06:13:02;10.30;;;7.33;;
69627;SDS011;56850;51.984;5.088;2023-04-15T06:15:29;8.85;;;6.80;;
69627;SDS011;56850;51.984;5.088;2023-04-15T06:17:57;10.75;;;7.38;;
69627;SDS011;56850;51.984;5.088;2023-04-15T06:20:24;9.30;;;6.72;;
69627;SDS011;56850;51.984;5.088;2023-04-15T06:22:51;10.40;;;7.18;;
69627;SDS011;56850;51.984;5.088;2023-04-15T06:25:18;9.90;;;6.43;;
69627;SDS011;56850;51.984;5.088;2023-04-15T06:27:45;8.43;;;6.50;;
69627;SDS011;56850;51.984;5.088;2023-04-15T06:30:12;9.95;;;7.47;;
69627;SDS011;56850;51.984;5.088;2023-04-15T06:32:39;9.35;;;6.93;;
69627;SDS011;56850;51.984;5.088;2023-04-15T06:35:06;10.70;;;7.63;;
69627;SDS011;56850;51.984;5.088;2023-04-15T06:37:33;9.10;;;6.53;;
69627;SDS011;56850;51.984;5.088;2023-04-15T06:40:00;10.88;;;7.40;;
69627;SDS011;56850;51.984;5.088;2023-04-15T06:42:30;11.60;;;7.32;;
69627;SDS011;56850;51.984;5.088;2023-04-15T06:44:57;9.52;;;7.20;;
69627;SDS011;56850;51.984;5.088;2023-04-15T06:47:24;11.30;;;7.45;;
69627;SDS011;56850;51.984;5.088;2023-04-15T06:49:52;10.47;;;7.93;;
69627;SDS011;56850;51.984;5.088;2023-04-15T06:52:19;9.82;;;7.47;;
69627;SDS011;56850;51.984;5.088;2023-04-15T06:54:46;11.35;;;7.53;;
69627;SDS011;56850;51.984;5.088;2023-04-15T06:57:12;12.18;;;7.70;;
69627;SDS011;56850;51.984;5.088;2023-04-15T06:59:39;10.55;;;7.20;;
69627;SDS011;56850;51.984;5.088;2023-04-15T07:02:09;9.60;;;7.40;;
69627;SDS011;56850;51.984;5.088;2023-04-15T07:04:38;9.38;;;7.40;;
69627;SDS011;56850;51.984;5.088;2023-04-15T07:07:06;9.25;;;7.78;;
69627;SDS011;56850;51.984;5.088;2023-04-15T07:09:33;11.18;;;7.20;;
69627;SDS011;56850;51.984;5.088;2023-04-15T07:12:00;10.32;;;7.22;;
69627;SDS011;56850;51.984;5.088;2023-04-15T07:14:27;11.63;;;7.67;;
69627;SDS011;56850;51.984;5.088;2023-04-15T07:16:54;11.15;;;7.57;;
69627;SDS011;56850;51.984;5.088;2023-04-15T07:19:22;9.27;;;6.32;;
69627;SDS011;56850;51.984;5.088;2023-04-15T07:21:49;12.45;;;7.43;;
69627;SDS011;56850;51.984;5.088;2023-04-15T07:24:16;11.25;;;8.07;;
69627;SDS011;56850;51.984;5.088;2023-04-15T07:26:45;10.43;;;7.57;;
69627;SDS011;56850;51.984;5.088;2023-04-15T07:29:12;10.07;;;7.97;;
69627;SDS011;56850;51.984;5.088;2023-04-15T07:31:39;10.00;;;8.18;;
69627;SDS011;56850;51.984;5.088;2023-04-15T07:34:07;10.38;;;7.65;;
69627;SDS011;56850;51.984;5.088;2023-04-15T07:36:34;11.23;;;7.65;;
69627;SDS011;56850;51.984;5.088;2023-04-15T07:39:02;9.27;;;6.70;;
69627;SDS011;56850;51.984;5.088;2023-04-15T07:41:29;8.25;;;6.25;;
69627;SDS011;56850;51.984;5.088;2023-04-15T07:43:56;12.02;;;7.80;;
69627;SDS011;56850;51.984;5.088;2023-04-15T07:46:24;9.75;;;7.32;;
69627;SDS011;56850;51.984;5.088;2023-04-15T07:48:52;8.98;;;7.10;;
69627;SDS011;56850;51.984;5.088;2023-04-15T07:51:19;10.80;;;6.47;;
69627;SDS011;56850;51.984;5.088;2023-04-15T07:53:47;9.55;;;6.10;;
69627;SDS011;56850;51.984;5.088;2023-04-15T07:56:15;7.28;;;5.22;;
69627;SDS011;56850;51.984;5.088;2023-04-15T07:58:42;8.70;;;6.30;;
69627;SDS011;56850;51.984;5.088;2023-04-15T08:01:09;6.78;;;5.25;;
69627;SDS011;56850;51.984;5.088;2023-04-15T08:03:37;7.40;;;5.17;;
69627;SDS011;56850;51.984;5.088;2023-04-15T08:06:05;7.60;;;5.72;;
69627;SDS011;56850;51.984;5.088;2023-04-15T08:08:32;8.43;;;5.70;;
69627;SDS011;56850;51.984;5.088;2023-04-15T08:10:58;10.18;;;5.63;;
69627;SDS011;56850;51.984;5.088;2023-04-15T08:13:25;8.32;;;5.97;;
69627;SDS011;56850;51.984;5.088;2023-04-15T08:18:59;8.75;;;5.80;;
69627;SDS011;56850;51.984;5.088;2023-04-15T08:21:26;7.15;;;5.50;;
69627;SDS011;56850;51.984;5.088;2023-04-15T08:23:53;6.30;;;4.70;;
69627;SDS011;56850;51.984;5.088;2023-04-15T08:26:20;8.10;;;5.22;;
69627;SDS011;56850;51.984;5.088;2023-04-15T08:28:48;5.47;;;4.57;;
69627;SDS011;56850;51.984;5.088;2023-04-15T08:31:15;9.32;;;5.13;;
69627;SDS011;56850;51.984;5.088;2023-04-15T08:33:43;6.97;;;4.65;;
69627;SDS011;56850;51.984;5.088;2023-04-15T08:36:11;7.95;;;4.75;;
69627;SDS011;56850;51.984;5.088;2023-04-15T08:38:40;10.18;;;4.82;;
69627;SDS011;56850;51.984;5.088;2023-04-15T08:43:50;7.30;;;3.83;;
69627;SDS011;56850;51.984;5.088;2023-04-15T08:46:26;8.15;;;4.13;;
69627;SDS011;56850;51.984;5.088;2023-04-15T08:48:55;6.50;;;4.32;;
69627;SDS011;56850;51.984;5.088;2023-04-15T08:51:23;7.22;;;4.93;;
69627;SDS011;56850;51.984;5.088;2023-04-15T08:53:50;7.83;;;4.60;;
69627;SDS011;56850;51.984;5.088;2023-04-15T08:56:18;8.52;;;4.78;;
69627;SDS011;56850;51.984;5.088;2023-04-15T08:58:48;8.00;;;5.15;;
69627;SDS011;56850;51.984;5.088;2023-04-15T09:01:16;6.93;;;4.60;;
69627;SDS011;56850;51.984;5.088;2023-04-15T09:03:43;7.78;;;4.50;;
69627;SDS011;56850;51.984;5.088;2023-04-15T09:06:15;5.77;;;4.40;;
69627;SDS011;56850;51.984;5.088;2023-04-15T09:08:42;9.05;;;4.60;;
69627;SDS011;56850;51.984;5.088;2023-04-15T09:11:10;9.18;;;3.58;;
69627;SDS011;56850;51.984;5.088;2023-04-15T09:13:38;5.03;;;3.17;;
69627;SDS011;56850;51.984;5.088;2023-04-15T09:16:05;6.50;;;3.50;;
69627;SDS011;56850;51.984;5.088;2023-04-15T09:18:34;5.70;;;3.50;;
69627;SDS011;56850;51.984;5.088;2023-04-15T09:21:05;6.72;;;3.60;;
69627;SDS011;56850;51.984;5.088;2023-04-15T09:23:38;7.85;;;4.05;;
69627;SDS011;56850;51.984;5.088;2023-04-15T09:26:28;6.15;;;3.83;;
69627;SDS011;56850;51.984;5.088;2023-04-15T09:29:09;5.82;;;4.20;;
69627;SDS011;56850;51.984;5.088;2023-04-15T09:31:40;5.20;;;3.60;;
69627;SDS011;56850;51.984;5.088;2023-04-15T09:34:08;4.82;;;3.78;;
69627;SDS011;56850;51.984;5.088;2023-04-15T09:39:16;4.47;;;3.38;;
69627;SDS011;56850;51.984;5.088;2023-04-15T09:41:43;5.50;;;3.60;;
69627;SDS011;56850;51.984;5.088;2023-04-15T09:44:23;7.80;;;3.53;;
69627;SDS011;56850;51.984;5.088;2023-04-15T09:46:50;5.68;;;3.10;;
69627;SDS011;56850;51.984;5.088;2023-04-15T09:49:17;5.60;;;3.10;;
69627;SDS011;56850;51.984;5.088;2023-04-15T09:51:44;5.88;;;2.92;;
69627;SDS011;56850;51.984;5.088;2023-04-15T09:54:33;4.25;;;2.72;;
69627;SDS011;56850;51.984;5.088;2023-04-15T09:57:05;4.33;;;2.70;;
69627;SDS011;56850;51.984;5.088;2023-04-15T09:59:38;5.18;;;2.83;;
69627;SDS011;56850;51.984;5.088;2023-04-15T10:02:05;3.67;;;2.30;;
69627;SDS011;56850;51.984;5.088;2023-04-15T10:04:34;4.50;;;2.47;;
69627;SDS011;56850;51.984;5.088;2023-04-15T10:07:03;4.80;;;2.50;;
69627;SDS011;56850;51.984;5.088;2023-04-15T10:09:31;7.30;;;3.30;;
69627;SDS011;56850;51.984;5.088;2023-04-15T10:12:01;4.43;;;3.00;;
69627;SDS011;56850;51.984;5.088;2023-04-15T10:14:31;5.63;;;3.20;;
69627;SDS011;56850;51.984;5.088;2023-04-15T10:17:00;4.40;;;3.08;;
69627;SDS011;56850;51.984;5.088;2023-04-15T10:19:32;7.75;;;3.60;;
69627;SDS011;56850;51.984;5.088;2023-04-15T10:22:02;4.63;;;2.70;;
69627;SDS011;56850;51.984;5.088;2023-04-15T10:24:30;4.35;;;2.40;;
69627;SDS011;56850;51.984;5.088;2023-04-15T10:26:58;4.95;;;2.95;;
69627;SDS011;56850;51.984;5.088;2023-04-15T10:29:27;3.88;;;2.85;;
69627;SDS011;56850;51.984;5.088;2023-04-15T10:31:54;4.95;;;3.03;;
69627;SDS011;56850;51.984;5.088;2023-04-15T10:34:22;4.60;;;2.60;;
69627;SDS011;56850;51.984;5.088;2023-04-15T10:36:50;7.45;;;2.50;;
69627;SDS011;56850;51.984;5.088;2023-04-15T10:39:43;4.07;;;2.80;;
69627;SDS011;56850;51.984;5.088;2023-04-15T10:42:10;4.72;;;2.35;;
69627;SDS011;56850;51.984;5.088;2023-04-15T10:44:40;3.55;;;2.92;;
69627;SDS011;56850;51.984;5.088;2023-04-15T10:47:14;4.13;;;2.60;;
69627;SDS011;56850;51.984;5.088;2023-04-15T10:49:47;3.75;;;2.50;;
69627;SDS011;56850;51.984;5.088;2023-04-15T10:52:23;3.53;;;2.60;;
69627;SDS011;56850;51.984;5.088;2023-04-15T10:57:53;4.70;;;2.97;;
69627;SDS011;56850;51.984;5.088;2023-04-15T11:00:24;4.77;;;2.80;;
69627;SDS011;56850;51.984;5.088;2023-04-15T11:03:03;3.20;;;2.45;;
69627;SDS011;56850;51.984;5.088;2023-04-15T11:08:08;2.60;;;2.40;;
69627;SDS011;56850;51.984;5.088;2023-04-15T11:13:23;4.23;;;2.40;;
69627;SDS011;56850;51.984;5.088;2023-04-15T11:15:54;3.97;;;2.80;;
69627;SDS011;56850;51.984;5.088;2023-04-15T11:18:27;3.55;;;2.70;;
69627;SDS011;56850;51.984;5.088;2023-04-15T11:20:57;4.30;;;2.72;;
69627;SDS011;56850;51.984;5.088;2023-04-15T11:23:33;3.70;;;3.20;;
69627;SDS011;56850;51.984;5.088;2023-04-15T11:26:11;3.50;;;2.80;;
69627;SDS011;56850;51.984;5.088;2023-04-15T11:28:39;3.78;;;3.17;;
69627;SDS011;56850;51.984;5.088;2023-04-15T11:31:14;7.15;;;3.35;;
69627;SDS011;56850;51.984;5.088;2023-04-15T11:33:45;5.47;;;2.95;;
69627;SDS011;56850;51.984;5.088;2023-04-15T11:36:25;5.85;;;3.70;;
69627;SDS011;56850;51.984;5.088;2023-04-15T11:38:53;4.73;;;3.20;;
69627;SDS011;56850;51.984;5.088;2023-04-15T11:41:21;7.25;;;3.05;;
69627;SDS011;56850;51.984;5.088;2023-04-15T11:43:49;5.93;;;3.40;;
69627;SDS011;56850;51.984;5.088;2023-04-15T11:46:17;4.10;;;2.92;;
69627;SDS011;56850;51.984;5.088;2023-04-15T11:48:45;3.97;;;3.10;;
69627;SDS011;56850;51.984;5.088;2023-04-15T11:51:12;6.20;;;3.30;;
69627;SDS011;56850;51.984;5.088;2023-04-15T11:53:44;6.68;;;3.67;;
69627;SDS011;56850;51.984;5.088;2023-04-15T11:56:21;3.72;;;3.05;;
69627;SDS011;56850;51.984;5.088;2023-04-15T11:58:56;5.00;;;3.22;;
69627;SDS011;56850;51.984;5.088;2023-04-15T12:01:31;5.10;;;3.58;;
69627;SDS011;56850;51.984;5.088;2023-04-15T12:04:14;5.77;;;3.40;;
69627;SDS011;56850;51.984;5.088;2023-04-15T12:06:48;5.07;;;3.45;;
69627;SDS011;56850;51.984;5.088;2023-04-15T12:09:15;3.65;;;2.92;;
69627;SDS011;56850;51.984;5.088;2023-04-15T12:11:49;4.55;;;2.80;;
69627;SDS011;56850;51.984;5.088;2023-04-15T12:14:23;3.83;;;2.50;;
69627;SDS011;56850;51.984;5.088;2023-04-15T12:16:59;3.23;;;2.20;;
69627;SDS011;56850;51.984;5.088;2023-04-15T12:19:35;2.55;;;1.95;;
69627;SDS011;56850;51.984;5.088;2023-04-15T12:22:04;2.60;;;1.80;;
69627;SDS011;56850;51.984;5.088;2023-04-15T12:24:33;2.30;;;1.70;;
69627;SDS011;56850;51.984;5.088;2023-04-15T12:27:02;2.50;;;2.30;;
69627;SDS011;56850;51.984;5.088;2023-04-15T12:29:31;3.07;;;2.20;;
69627;SDS011;56850;51.984;5.088;2023-04-15T12:34:40;4.50;;;2.53;;
69627;SDS011;56850;51.984;5.088;2023-04-15T12:37:09;3.72;;;2.40;;
69627;SDS011;56850;51.984;5.088;2023-04-15T12:39:38;4.38;;;2.13;;
69627;SDS011;56850;51.984;5.088;2023-04-15T12:42:07;4.00;;;2.07;;
69627;SDS011;56850;51.984;5.088;2023-04-15T12:44:35;3.35;;;2.53;;
69627;SDS011;56850;51.984;5.088;2023-04-15T12:47:03;3.42;;;2.22;;
69627;SDS011;56850;51.984;5.088;2023-04-15T12:49:30;6.15;;;3.72;;
69627;SDS011;56850;51.984;5.088;2023-04-15T12:51:58;3.35;;;2.85;;
69627;SDS011;56850;51.984;5.088;2023-04-15T12:54:27;3.23;;;2.20;;
69627;SDS011;56850;51.984;5.088;2023-04-15T12:56:55;5.43;;;2.67;;
69627;SDS011;56850;51.984;5.088;2023-04-15T12:59:22;3.88;;;2.53;;
69627;SDS011;56850;51.984;5.088;2023-04-15T13:01:50;3.92;;;2.08;;
69627;SDS011;56850;51.984;5.088;2023-04-15T13:04:19;4.60;;;2.30;;
69627;SDS011;56850;51.984;5.088;2023-04-15T13:06:46;3.43;;;2.23;;
69627;SDS011;56850;51.984;5.088;2023-04-15T13:09:13;6.13;;;3.10;;
69627;SDS011;56850;51.984;5.088;2023-04-15T13:11:41;4.95;;;2.88;;
69627;SDS011;56850;51.984;5.088;2023-04-15T13:14:08;3.45;;;2.58;;
69627;SDS011;56850;51.984;5.088;2023-04-15T13:16:36;4.25;;;2.45;;
69627;SDS011;56850;51.984;5.088;2023-04-15T13:19:04;3.43;;;2.60;;
69627;SDS011;56850;51.984;5.088;2023-04-15T13:21:31;3.47;;;2.80;;
69627;SDS011;56850;51.984;5.088;2023-04-15T13:24:01;6.20;;;2.60;;
69627;SDS011;56850;51.984;5.088;2023-04-15T13:26:29;4.25;;;2.78;;
69627;SDS011;56850;51.984;5.088;2023-04-15T13:28:57;4.88;;;2.97;;
69627;SDS011;56850;51.984;5.088;2023-04-15T13:31:23;4.20;;;2.37;;
69627;SDS011;56850;51.984;5.088;2023-04-15T13:33:50;3.10;;;2.67;;
69627;SDS011;56850;51.984;5.088;2023-04-15T13:36:18;4.15;;;2.47;;
69627;SDS011;56850;51.984;5.088;2023-04-15T13:38:45;3.75;;;2.33;;
69627;SDS011;56850;51.984;5.088;2023-04-15T13:41:14;5.18;;;1.70;;
69627;SDS011;56850;51.984;5.088;2023-04-15T13:43:41;3.70;;;2.43;;
69627;SDS011;56850;51.984;5.088;2023-04-15T13:46:08;3.25;;;1.95;;
69627;SDS011;56850;51.984;5.088;2023-04-15T13:48:35;3.08;;;2.10;;
69627;SDS011;56850;51.984;5.088;2023-04-15T13:51:02;3.88;;;2.03;;
69627;SDS011;56850;51.984;5.088;2023-04-15T13:53:29;2.75;;;1.60;;
69627;SDS011;56850;51.984;5.088;2023-04-15T13:56:05;2.37;;;1.33;;
69627;SDS011;56850;51.984;5.088;2023-04-15T13:58:32;4.78;;;1.85;;
69627;SDS011;56850;51.984;5.088;2023-04-15T14:01:00;3.28;;;1.60;;
69627;SDS011;56850;51.984;5.088;2023-04-15T14:03:30;3.78;;;1.90;;
69627;SDS011;56850;51.984;5.088;2023-04-15T14:05:58;3.45;;;1.90;;
69627;SDS011;56850;51.984;5.088;2023-04-15T14:08:25;2.87;;;1.60;;
69627;SDS011;56850;51.984;5.088;2023-04-15T14:10:52;2.40;;;1.23;;
69627;SDS011;56850;51.984;5.088;2023-04-15T14:13:18;2.38;;;1.67;;
69627;SDS011;56850;51.984;5.088;2023-04-15T14:15:45;2.50;;;1.52;;
69627;SDS011;56850;51.984;5.088;2023-04-15T14:18:12;2.95;;;1.60;;
69627;SDS011;56850;51.984;5.088;2023-04-15T14:20:39;2.53;;;1.40;;
69627;SDS011;56850;51.984;5.088;2023-04-15T14:23:06;2.05;;;1.38;;
69627;SDS011;56850;51.984;5.088;2023-04-15T14:25:33;3.33;;;1.23;;
69627;SDS011;56850;51.984;5.088;2023-04-15T14:28:00;2.83;;;1.70;;
69627;SDS011;56850;51.984;5.088;2023-04-15T14:30:28;3.97;;;1.80;;
69627;SDS011;56850;51.984;5.088;2023-04-15T14:32:55;2.70;;;1.67;;
69627;SDS011;56850;51.984;5.088;2023-04-15T14:35:23;2.65;;;1.60;;
69627;SDS011;56850;51.984;5.088;2023-04-15T14:37:52;3.45;;;1.58;;
69627;SDS011;56850;51.984;5.088;2023-04-15T14:40:19;3.03;;;1.40;;
69627;SDS011;56850;51.984;5.088;2023-04-15T14:42:47;1.60;;;1.40;;
69627;SDS011;56850;51.984;5.088;2023-04-15T14:45:14;6.03;;;1.40;;
69627;SDS011;56850;51.984;5.088;2023-04-15T14:47:40;3.95;;;1.88;;
69627;SDS011;56850;51.984;5.088;2023-04-15T14:50:07;2.90;;;1.55;;
69627;SDS011;56850;51.984;5.088;2023-04-15T14:52:35;2.28;;;1.48;;
69627;SDS011;56850;51.984;5.088;2023-04-15T14:55:05;4.75;;;1.90;;
69627;SDS011;56850;51.984;5.088;2023-04-15T14:57:38;4.97;;;2.13;;
69627;SDS011;56850;51.984;5.088;2023-04-15T15:00:06;3.38;;;1.55;;
69627;SDS011;56850;51.984;5.088;2023-04-15T15:02:37;5.80;;;2.10;;
69627;SDS011;56850;51.984;5.088;2023-04-15T15:05:06;3.03;;;1.80;;
69627;SDS011;56850;51.984;5.088;2023-04-15T15:07:34;5.47;;;1.40;;
69627;SDS011;56850;51.984;5.088;2023-04-15T15:10:02;3.30;;;1.83;;
69627;SDS011;56850;51.984;5.088;2023-04-15T15:12:30;2.63;;;1.75;;